Latest Weather Observations for South Johnstone

IDQ60801

Issued at 6:02 pm EST Thursday 2 July 2015 (issued every 30 minutes, with the page automatically refreshed every 10 minutes)

About weather observations | Map of weather stations | Latest weather observations for QLD | Other Formats
Station Details ID: 032037 Name: SOUTH JOHNSTONE EXP STN Lat: -17.61 Lon: 146.00 Height: 18.3 m
Data from the previous 72 hours. | See also: Recent months at South Johnstone
Date/Time
EST
Temp
°C
App
Temp
°C
Dew
Point
Rel
Hum
%
Delta-T
°C
Wind Press
QNH
hPa
Press
MSL
hPa
Rain
since 9 am
mm
Dir
 
Spd
km/h
Gust
km/h
Spd
kts
Gust
kts
02/06:00pm 20.4 22.9 17.3 82 1.9 CALM 0 0 0 0 1018.6 1018.5 0.2
02/05:30pm 21.2 23.3 17.3 78 2.4 SE 2 7 1 4 1018.4 - 0.2
02/05:00pm 22.2 22.9 17.0 72 3.2 SE 9 17 5 9 1018.3 - 0.2
02/04:30pm 22.5 22.4 16.9 70 3.4 SE 13 20 7 11 1018.1 - 0.2
02/04:00pm 23.3 22.7 16.6 66 4.1 SE 15 22 8 12 1018.2 - 0.2
02/03:30pm 23.8 23.4 17.2 66 4.1 SE 15 24 8 13 1017.9 - 0.2
02/03:00pm 24.1 23.6 17.7 67 4.0 SE 17 26 9 14 1018.1 1018.0 0.2
02/02:30pm 24.7 24.5 17.6 64 4.4 SSE 15 22 8 12 1018.2 - 0.2
02/02:00pm 24.7 24.7 17.1 62 4.7 SE 13 24 7 13 1018.3 - 0.2
02/01:30pm 24.7 24.9 17.6 64 4.4 SE 13 22 7 12 1018.8 - 0.2
02/01:00pm 24.9 24.5 17.1 62 4.8 SSE 15 28 8 15 1019.4 - 0.2
02/12:30pm 25.0 24.9 16.9 60 5.0 SE 13 24 7 13 1020.0 - 0.2
02/12:00pm 24.7 24.5 16.7 61 4.9 SSE 13 20 7 11 1020.5 1020.4 0.0
02/11:30am 24.3 24.4 17.5 66 4.2 S 13 28 7 15 1020.8 - 0.0
02/11:00am 23.0 23.7 17.9 73 3.2 S 11 19 6 10 1021.1 - 0.0
02/10:30am 22.9 23.0 17.4 71 3.4 SSE 13 20 7 11 1021.3 - 0.0
02/10:00am 23.2 23.7 17.4 70 3.6 S 11 20 6 11 1021.5 - 0.0
02/09:30am 22.2 22.8 17.7 75 2.8 SSW 11 15 6 8 1021.6 - 0.0
02/09:00am 20.8 22.4 18.2 85 1.6 WSW 7 11 4 6 1021.4 1021.3 0.0
02/08:30am 19.1 21.1 17.8 92 0.8 W 4 9 2 5 1021.1 - 0.0
02/08:00am 17.3 17.3 16.3 94 0.6 WSW 11 13 6 7 1020.7 - 0.0
02/07:30am 16.6 16.5 15.9 96 0.4 WSW 11 13 6 7 1020.7 - 0.0
02/07:00am 16.2 16.8 15.7 97 0.3 W 7 13 4 7 1020.5 - 0.0
02/06:30am 16.3 16.5 15.8 97 0.3 W 9 13 5 7 1020.2 - 0.0
02/06:00am 16.1 16.6 15.6 97 0.3 W 7 13 4 7 1019.8 1019.7 0.0
02/05:30am 16.2 16.4 15.7 97 0.3 WSW 9 15 5 8 1019.6 - 0.0
02/05:00am 16.1 16.2 15.6 97 0.3 W 9 13 5 7 1019.3 - 0.0
02/04:30am 16.1 15.9 15.6 97 0.3 W 11 15 6 8 1019.3 - 0.0
02/04:00am 16.2 16.0 15.7 97 0.3 WSW 11 13 6 7 1019.3 - 0.0
02/03:30am 16.3 16.1 15.8 97 0.3 WSW 11 13 6 7 1019.5 - 0.0
02/03:00am 16.3 16.5 15.8 97 0.3 WSW 9 13 5 7 1019.6 1019.5 0.0
02/02:30am 16.5 16.4 16.0 97 0.3 WSW 11 15 6 8 1019.7 - 0.0
02/02:00am 16.6 16.5 16.1 97 0.3 WSW 11 15 6 8 1020.0 - 0.0
02/01:30am 16.7 17.4 16.2 97 0.3 W 7 13 4 7 1020.5 - 0.0
02/01:00am 16.8 17.2 16.3 97 0.3 W 9 15 5 8 1020.7 - 0.0
02/12:30am 17.0 17.0 16.3 96 0.4 W 11 15 6 8 1020.9 - 0.0
02/12:00am 17.1 17.6 16.6 97 0.3 W 9 13 5 7 1021.1 1021.0 0.0
 
Date/Time
EST
Temp
°C
App
Temp
°C
Dew
Point
Rel
Hum
%
Delta-T
°C
Wind Press
QNH
hPa
Press
MSL
hPa
Rain
since 9 am
mm
Dir
 
Spd
km/h
Gust
km/h
Spd
kts
Gust
kts
01/11:30pm 17.2 17.7 16.5 96 0.4 WSW 9 13 5 7 1021.3 - 0.0
01/11:00pm 17.4 18.3 16.7 96 0.4 W 7 11 4 6 1021.5 - 0.0
01/10:30pm 17.5 18.1 16.8 96 0.4 W 9 13 5 7 1021.6 - 0.0
01/10:00pm 17.5 17.7 16.7 95 0.5 WSW 11 15 6 8 1021.7 - 0.0
01/09:30pm 17.6 17.8 16.8 95 0.5 WSW 11 15 6 8 1021.6 - 0.0
01/09:00pm 17.8 18.1 17.0 95 0.5 WSW 11 13 6 7 1021.3 1021.2 0.0
01/08:30pm 18.1 19.2 17.1 94 0.6 W 7 13 4 7 1021.1 - 0.0
01/08:00pm 18.4 18.9 17.4 94 0.6 WSW 11 13 6 7 1020.9 - 0.0
01/07:30pm 18.8 20.1 17.5 92 0.8 W 7 9 4 5 1020.6 - 0.0
01/07:00pm 19.8 21.2 17.7 88 1.3 WSW 7 9 4 5 1020.4 - 0.0
01/06:30pm 21.3 22.2 16.7 75 2.8 SSW 7 11 4 6 1020.1 - 0.0
01/06:00pm 21.5 21.6 16.5 73 3.0 S 11 15 6 8 1019.8 1019.7 0.0
01/05:30pm 22.1 21.7 16.1 69 3.6 S 13 17 7 9 1019.6 - 0.0
01/05:00pm 22.6 22.6 16.3 67 3.8 S 11 19 6 10 1019.4 - 0.0
01/04:30pm 22.8 22.2 16.7 68 3.7 SSE 15 20 8 11 1019.3 - 0.0
01/04:00pm 23.5 23.2 16.4 64 4.3 SSE 13 19 7 10 1019.2 - 0.0
01/03:30pm 23.8 23.6 16.8 65 4.3 S 13 20 7 11 1019.2 - 0.0
01/03:00pm 23.8 22.5 16.8 65 4.3 SE 19 30 10 16 1019.3 1019.2 0.0
01/02:30pm 24.3 23.2 16.3 61 4.9 SSE 17 28 9 15 1019.4 - 0.0
01/02:00pm 24.3 22.9 16.6 62 4.7 SSE 19 28 10 15 1019.7 - 0.0
01/01:30pm 24.2 23.3 16.9 63 4.5 SSE 17 28 9 15 1020.0 - 0.0
01/01:00pm 24.2 23.4 17.2 65 4.3 SSE 17 28 9 15 1020.4 - 0.0
01/12:30pm 23.5 22.9 17.5 69 3.7 SSE 17 24 9 13 1021.0 - 0.0
01/12:00pm 23.4 22.7 17.4 69 3.7 S 17 32 9 17 1021.2 1021.1 0.0
01/11:30am 23.5 22.9 17.5 69 3.7 S 17 28 9 15 1021.7 - 0.0
01/11:00am 23.4 23.7 17.8 71 3.5 SSE 13 22 7 12 1021.9 - 0.0
01/10:30am 23.1 23.4 17.8 72 3.3 S 13 22 7 12 1022.2 - 0.0
01/10:00am 22.3 22.9 17.8 75 2.8 S 11 22 6 12 1022.2 - 0.0
01/09:30am 23.2 23.5 17.9 72 3.3 S 13 20 7 11 1022.3 - 0.0
01/09:00am 22.4 22.6 17.7 75 2.9 S 13 20 7 11 1022.1 1022.0 0.8
01/08:30am 21.7 21.8 17.5 77 2.6 SSW 13 19 7 10 1021.9 - 0.8
01/08:00am 20.8 20.3 17.0 79 2.3 SSW 15 24 8 13 1021.6 - 0.8
01/07:30am 20.1 20.4 17.0 82 1.9 SSW 11 17 6 9 1021.3 - 0.8
01/07:00am 20.6 20.4 16.6 78 2.4 SSW 13 22 7 12 1021.0 - 0.8
01/06:30am 20.6 20.4 16.8 79 2.3 SSW 13 20 7 11 1020.8 - 0.8
01/06:00am 20.5 20.4 16.9 80 2.2 SSW 13 19 7 10 1020.5 1020.4 0.8
01/05:30am 20.8 20.3 16.8 78 2.4 S 15 24 8 13 1020.3 - 0.8
01/05:00am 20.7 20.7 17.1 80 2.2 SSW 13 20 7 11 1020.3 - 0.8
01/04:30am 20.8 20.4 17.2 80 2.2 SSW 15 24 8 13 1020.2 - 0.8
01/04:00am 20.8 20.9 17.5 81 2.0 SSW 13 22 7 12 1020.2 - 0.8
01/03:30am 20.9 20.8 17.8 82 1.9 S 15 20 8 11 1020.4 - 0.8
01/03:00am 21.2 21.4 17.6 80 2.2 SSW 13 22 7 12 1020.4 1020.3 0.8
01/02:30am 21.4 21.2 17.5 78 2.4 SSW 15 26 8 14 1020.4 - 0.8
01/02:00am 21.3 21.5 17.7 80 2.2 SSW 13 22 7 12 1020.6 - 0.8
01/01:30am 21.3 21.2 17.9 81 2.1 S 15 24 8 13 1020.8 - 0.8
01/01:00am 21.2 22.1 18.3 83 1.8 SSW 11 17 6 9 1020.9 - 0.8
01/12:30am 21.4 21.4 18.2 82 2.0 S 15 22 8 12 1021.0 - 0.8
01/12:00am 21.6 21.7 18.4 82 2.0 SSW 15 24 8 13 1021.1 1021.0 0.8
 
Date/Time
EST
Temp
°C
App
Temp
°C
Dew
Point
Rel
Hum
%
Delta-T
°C
Wind Press
QNH
hPa
Press
MSL
hPa
Rain
since 9 am
mm
Dir
 
Spd
km/h
Gust
km/h
Spd
kts
Gust
kts
30/11:30pm 21.7 22.2 18.3 81 2.1 S 13 20 7 11 1021.3 - 0.8
30/11:00pm 21.7 21.8 18.3 81 2.1 SSW 15 20 8 11 1021.5 - 0.8
30/10:30pm 21.7 22.0 18.7 83 1.9 S 15 22 8 12 1021.6 - 0.8
30/10:00pm 21.7 22.4 18.8 83 1.8 S 13 22 7 12 1021.7 - 0.8
30/09:30pm 21.6 22.8 19.1 86 1.6 S 11 20 6 11 1021.6 - 0.8
30/09:00pm 21.6 22.8 19.1 86 1.6 S 11 15 6 8 1021.3 1021.2 0.8
30/08:30pm 21.7 22.9 19.0 84 1.7 S 11 17 6 9 1021.1 - 0.8
30/08:00pm 22.0 22.4 19.0 83 1.9 SSW 15 26 8 14 1020.9 - 0.8
30/07:30pm 22.1 22.5 18.9 82 2.0 S 15 22 8 12 1020.5 - 0.8
30/07:00pm 22.1 22.2 19.1 83 1.9 S 17 24 9 13 1020.2 - 0.8
30/06:30pm 22.1 22.2 19.1 83 1.9 S 17 30 9 16 1019.9 - 0.8
30/06:00pm 22.2 23.2 19.4 84 1.8 S 13 20 7 11 1019.7 1019.6 0.8
30/05:30pm 22.5 23.9 19.5 83 1.9 S 11 17 6 9 1019.4 - 0.8
30/05:00pm 23.1 24.4 19.3 79 2.4 S 11 20 6 11 1019.1 - 0.8
30/04:30pm 23.4 23.9 19.2 77 2.7 SSE 15 20 8 11 1018.8 - 0.8
30/04:00pm 23.9 24.4 19.2 75 3.0 S 15 24 8 13 1018.8 - 0.8
30/03:30pm 24.2 24.4 19.3 74 3.1 SSE 17 24 9 13 1018.8 - 0.8
30/03:00pm 24.3 24.2 18.8 71 3.5 SSE 17 26 9 14 1018.9 1018.8 0.8
30/02:30pm 24.8 23.6 17.4 63 4.6 SE 20 28 11 15 1018.9 - 0.8
30/02:00pm 24.1 23.6 18.7 72 3.4 SE 19 28 10 15 1019.1 - 0.8
30/01:30pm 24.6 25.1 20.0 75 3.0 SE 17 30 9 16 1019.3 - 0.8
30/01:00pm 24.1 24.1 20.1 78 2.6 SSE 20 30 11 16 1019.7 - 0.8
30/12:30pm 24.8 24.5 20.3 76 2.9 SE 22 32 12 17 1020.0 - 0.8
30/12:00pm 24.3 25.1 20.6 80 2.4 SE 17 26 9 14 1020.3 1020.2 0.8
30/11:30am 24.5 25.2 20.5 78 2.6 SE 17 26 9 14 1020.6 - 0.8
30/11:00am 24.3 24.9 20.3 78 2.6 SE 17 30 9 16 1020.8 - 0.8
30/10:30am 22.4 26.5 20.7 90 1.1 CALM 0 4 0 2 1021.0 - 0.8
30/10:00am 21.9 25.6 20.8 93 0.7 WNW 2 9 1 5 1021.1 - 0.8
30/09:30am 22.0 25.8 20.1 89 1.2 CALM 0 6 0 3 1021.2 - 0.2
30/09:00am 21.7 24.3 20.0 90 1.1 W 6 13 3 7 1021.1 1021.0 102.4
30/08:30am 21.5 23.7 19.6 89 1.2 S 7 13 4 7 1020.5 - 102.4
30/08:00am 21.4 22.5 19.7 90 1.1 S 13 19 7 10 1020.1 - 102.4
30/07:30am 21.2 22.6 19.6 90 1.0 S 11 22 6 12 1019.7 - 102.4
30/07:00am 21.2 22.6 19.6 90 1.0 S 11 19 6 10 1019.2 - 102.4
30/06:30am 20.5 21.6 19.6 95 0.6 S 13 20 7 11 1018.8 - 102.4
30/06:00am 20.7 22.0 20.1 96 0.4 SSE 13 20 7 11 1018.7 1018.6 101.8
30/05:30am 20.6 22.2 20.0 96 0.4 SSE 11 22 6 12 1018.3 - 99.4
30/05:00am 20.9 21.7 19.8 93 0.7 S 15 26 8 14 1018.3 - 88.6
30/04:30am 20.9 22.1 19.8 93 0.7 S 13 22 7 12 1018.2 - 87.2
30/04:00am 21.2 22.1 20.1 93 0.7 SSE 15 26 8 14 1018.1 - 84.8
30/03:30am 21.3 22.3 20.2 93 0.7 S 15 24 8 13 1018.1 - 84.4
30/03:00am 21.4 22.4 20.2 93 0.8 S 15 22 8 12 1018.1 1018.0 83.2
30/02:30am 21.6 22.7 20.5 93 0.7 S 15 26 8 14 1018.4 - 83.2
30/02:00am 21.4 22.5 20.5 95 0.6 S 15 28 8 15 1018.4 - 83.2
30/01:30am 21.6 21.7 20.4 93 0.8 SSE 20 32 11 17 1018.6 - 83.0
30/01:00am 21.6 22.0 20.7 95 0.6 SSE 19 32 10 17 1018.8 - 83.0
30/12:30am 21.7 23.3 20.8 95 0.6 SSE 13 24 7 13 1018.6 - 81.6
30/12:00am 21.5 23.2 20.9 96 0.4 SE 13 24 7 13 1018.7 1018.6 81.4
 
Date/Time
EST
Temp
°C
App
Temp
°C
Dew
Point
Rel
Hum
%
Delta-T
°C
Wind Press
QNH
hPa
Press
MSL
hPa
Rain
since 9 am
mm
Dir
 
Spd
km/h
Gust
km/h
Spd
kts
Gust
kts
29/11:30pm 21.6 23.6 20.7 95 0.6 SSE 11 17 6 9 1019.0 - 74.2
29/11:00pm 21.5 22.8 20.9 96 0.4 SSE 15 26 8 14 1019.4 - 73.8
29/10:30pm 21.3 23.7 20.8 97 0.3 SE 9 19 5 10 1019.4 - 73.6
29/10:00pm 20.5 22.1 20.0 97 0.3 SSE 11 19 6 10 1019.8 - 72.8
29/09:30pm 20.2 22.4 19.7 97 0.3 SE 7 13 4 7 1019.8 - 69.2
29/09:00pm 20.2 22.0 19.6 96 0.4 E 9 13 5 7 1019.7 1019.6 67.0
29/08:30pm 20.3 21.8 19.7 96 0.4 E 11 19 6 10 1019.6 - 66.0
29/08:00pm 20.5 22.1 19.9 96 0.4 ENE 11 19 6 10 1019.7 - 62.4
29/07:30pm 20.7 22.6 19.8 95 0.6 S 9 17 5 9 1018.9 - 55.4
29/07:00pm 20.3 22.2 19.7 96 0.4 SSE 9 15 5 8 1019.1 - 55.4
29/06:30pm 20.6 21.1 20.1 97 0.3 ESE 17 28 9 15 1018.8 - 55.4

Other Formats:

Comma delimited format used in spreadsheet applications
http://www.bom.gov.au/fwo/IDQ60801/IDQ60801.95292.axf

JavaScript Object Notation format (JSON) in row-major order
http://www.bom.gov.au/fwo/IDQ60801/IDQ60801.95292.json